sensor_id;sensor_type;location;lat;lon;timestamp;P1;durP1;ratioP1;P2;durP2;ratioP2
81912;SDS011;71377;50.698;7.164;2023-12-20T00:01:02;1.75;;;1.65;;
81912;SDS011;71377;50.698;7.164;2023-12-20T00:03:29;1.50;;;1.40;;
81912;SDS011;71377;50.698;7.164;2023-12-20T00:06:07;1.67;;;1.52;;
81912;SDS011;71377;50.698;7.164;2023-12-20T00:08:33;2.00;;;1.80;;
81912;SDS011;71377;50.698;7.164;2023-12-20T00:11:00;1.60;;;1.30;;
81912;SDS011;71377;50.698;7.164;2023-12-20T00:13:27;3.38;;;1.55;;
81912;SDS011;71377;50.698;7.164;2023-12-20T00:15:53;1.58;;;1.48;;
81912;SDS011;71377;50.698;7.164;2023-12-20T00:18:20;1.67;;;1.58;;
81912;SDS011;71377;50.698;7.164;2023-12-20T00:20:46;1.70;;;1.60;;
81912;SDS011;71377;50.698;7.164;2023-12-20T00:23:12;1.80;;;1.70;;
81912;SDS011;71377;50.698;7.164;2023-12-20T00:25:39;1.98;;;1.77;;
81912;SDS011;71377;50.698;7.164;2023-12-20T00:28:05;1.70;;;1.60;;
81912;SDS011;71377;50.698;7.164;2023-12-20T00:30:32;2.20;;;2.00;;
81912;SDS011;71377;50.698;7.164;2023-12-20T00:32:59;2.13;;;1.90;;
81912;SDS011;71377;50.698;7.164;2023-12-20T00:35:25;2.00;;;1.90;;
81912;SDS011;71377;50.698;7.164;2023-12-20T00:37:52;1.65;;;1.55;;
81912;SDS011;71377;50.698;7.164;2023-12-20T00:40:18;1.67;;;1.58;;
81912;SDS011;71377;50.698;7.164;2023-12-20T00:42:45;1.80;;;1.70;;
81912;SDS011;71377;50.698;7.164;2023-12-20T00:45:13;2.08;;;1.92;;
81912;SDS011;71377;50.698;7.164;2023-12-20T00:47:40;2.83;;;2.00;;
81912;SDS011;71377;50.698;7.164;2023-12-20T00:50:07;2.22;;;2.03;;
81912;SDS011;71377;50.698;7.164;2023-12-20T00:52:34;1.90;;;1.80;;
81912;SDS011;71377;50.698;7.164;2023-12-20T00:55:01;1.92;;;1.83;;
81912;SDS011;71377;50.698;7.164;2023-12-20T00:57:27;1.60;;;1.50;;
81912;SDS011;71377;50.698;7.164;2023-12-20T00:59:53;1.75;;;1.60;;
81912;SDS011;71377;50.698;7.164;2023-12-20T01:02:20;1.40;;;1.30;;
81912;SDS011;71377;50.698;7.164;2023-12-20T01:04:46;1.42;;;1.33;;
81912;SDS011;71377;50.698;7.164;2023-12-20T01:07:13;1.40;;;1.30;;
81912;SDS011;71377;50.698;7.164;2023-12-20T01:09:39;1.63;;;1.30;;
81912;SDS011;71377;50.698;7.164;2023-12-20T01:12:06;1.10;;;1.10;;
81912;SDS011;71377;50.698;7.164;2023-12-20T01:14:32;1.42;;;1.00;;
81912;SDS011;71377;50.698;7.164;2023-12-20T01:16:59;1.30;;;1.20;;
81912;SDS011;71377;50.698;7.164;2023-12-20T01:19:25;1.05;;;1.05;;
81912;SDS011;71377;50.698;7.164;2023-12-20T01:21:54;1.50;;;1.40;;
81912;SDS011;71377;50.698;7.164;2023-12-20T01:24:20;1.38;;;1.30;;
81912;SDS011;71377;50.698;7.164;2023-12-20T01:26:46;2.20;;;1.70;;
81912;SDS011;71377;50.698;7.164;2023-12-20T01:29:13;1.60;;;1.50;;
81912;SDS011;71377;50.698;7.164;2023-12-20T01:31:40;2.72;;;1.70;;
81912;SDS011;71377;50.698;7.164;2023-12-20T01:34:07;2.10;;;2.00;;
81912;SDS011;71377;50.698;7.164;2023-12-20T01:36:33;2.67;;;2.20;;
81912;SDS011;71377;50.698;7.164;2023-12-20T01:38:59;2.58;;;2.38;;
81912;SDS011;71377;50.698;7.164;2023-12-20T01:41:28;3.28;;;2.97;;
81912;SDS011;71377;50.698;7.164;2023-12-20T01:43:54;4.50;;;3.20;;
81912;SDS011;71377;50.698;7.164;2023-12-20T01:46:21;3.38;;;3.03;;
81912;SDS011;71377;50.698;7.164;2023-12-20T01:48:48;3.55;;;3.22;;
81912;SDS011;71377;50.698;7.164;2023-12-20T01:51:15;5.35;;;3.95;;
81912;SDS011;71377;50.698;7.164;2023-12-20T01:53:41;4.90;;;4.40;;
81912;SDS011;71377;50.698;7.164;2023-12-20T01:56:08;5.57;;;4.32;;
81912;SDS011;71377;50.698;7.164;2023-12-20T01:58:37;4.80;;;4.30;;
81912;SDS011;71377;50.698;7.164;2023-12-20T02:01:09;5.43;;;4.88;;
81912;SDS011;71377;50.698;7.164;2023-12-20T02:03:36;6.90;;;5.32;;
81912;SDS011;71377;50.698;7.164;2023-12-20T02:06:04;6.80;;;5.28;;
81912;SDS011;71377;50.698;7.164;2023-12-20T02:08:31;7.47;;;5.78;;
81912;SDS011;71377;50.698;7.164;2023-12-20T02:10:57;7.35;;;5.28;;
81912;SDS011;71377;50.698;7.164;2023-12-20T02:13:24;7.47;;;5.82;;
81912;SDS011;71377;50.698;7.164;2023-12-20T02:15:53;8.45;;;6.20;;
81912;SDS011;71377;50.698;7.164;2023-12-20T02:18:20;8.65;;;6.03;;
81912;SDS011;71377;50.698;7.164;2023-12-20T02:20:47;10.30;;;6.40;;
81912;SDS011;71377;50.698;7.164;2023-12-20T02:23:14;10.35;;;6.28;;
81912;SDS011;71377;50.698;7.164;2023-12-20T02:25:40;10.25;;;6.50;;
81912;SDS011;71377;50.698;7.164;2023-12-20T02:28:07;9.88;;;6.22;;
81912;SDS011;71377;50.698;7.164;2023-12-20T02:30:33;9.93;;;5.25;;
81912;SDS011;71377;50.698;7.164;2023-12-20T02:33:00;8.27;;;4.15;;
81912;SDS011;71377;50.698;7.164;2023-12-20T02:35:27;10.00;;;4.00;;
81912;SDS011;71377;50.698;7.164;2023-12-20T02:37:53;9.38;;;3.70;;
81912;SDS011;71377;50.698;7.164;2023-12-20T02:40:20;7.38;;;3.20;;
81912;SDS011;71377;50.698;7.164;2023-12-20T02:42:46;14.07;;;3.88;;
81912;SDS011;71377;50.698;7.164;2023-12-20T02:45:13;9.25;;;3.55;;
81912;SDS011;71377;50.698;7.164;2023-12-20T02:47:39;9.20;;;3.35;;
81912;SDS011;71377;50.698;7.164;2023-12-20T02:50:06;10.27;;;3.47;;
81912;SDS011;71377;50.698;7.164;2023-12-20T02:52:32;8.77;;;3.33;;
81912;SDS011;71377;50.698;7.164;2023-12-20T02:54:59;9.07;;;3.00;;
81912;SDS011;71377;50.698;7.164;2023-12-20T02:57:25;8.05;;;2.80;;
81912;SDS011;71377;50.698;7.164;2023-12-20T02:59:52;7.65;;;2.90;;
81912;SDS011;71377;50.698;7.164;2023-12-20T03:02:18;8.45;;;2.55;;
81912;SDS011;71377;50.698;7.164;2023-12-20T03:04:45;7.05;;;2.33;;
81912;SDS011;71377;50.698;7.164;2023-12-20T03:07:11;7.88;;;2.85;;
81912;SDS011;71377;50.698;7.164;2023-12-20T03:09:38;8.65;;;2.60;;
81912;SDS011;71377;50.698;7.164;2023-12-20T03:12:24;10.00;;;2.30;;
81912;SDS011;71377;50.698;7.164;2023-12-20T03:14:51;7.45;;;2.25;;
81912;SDS011;71377;50.698;7.164;2023-12-20T03:17:17;10.52;;;2.85;;
81912;SDS011;71377;50.698;7.164;2023-12-20T03:19:44;6.78;;;2.75;;
81912;SDS011;71377;50.698;7.164;2023-12-20T03:22:11;8.35;;;2.25;;
81912;SDS011;71377;50.698;7.164;2023-12-20T03:24:37;7.25;;;2.17;;
81912;SDS011;71377;50.698;7.164;2023-12-20T03:27:04;11.77;;;2.90;;
81912;SDS011;71377;50.698;7.164;2023-12-20T03:29:30;8.23;;;2.08;;
81912;SDS011;71377;50.698;7.164;2023-12-20T03:31:56;9.68;;;2.30;;
81912;SDS011;71377;50.698;7.164;2023-12-20T03:34:23;12.60;;;2.50;;
81912;SDS011;71377;50.698;7.164;2023-12-20T03:36:49;7.65;;;2.35;;
81912;SDS011;71377;50.698;7.164;2023-12-20T03:39:16;8.02;;;2.20;;
81912;SDS011;71377;50.698;7.164;2023-12-20T03:41:42;10.40;;;2.22;;
81912;SDS011;71377;50.698;7.164;2023-12-20T03:44:09;16.17;;;3.38;;
81912;SDS011;71377;50.698;7.164;2023-12-20T03:46:35;8.63;;;2.15;;
81912;SDS011;71377;50.698;7.164;2023-12-20T03:49:01;10.02;;;2.72;;
81912;SDS011;71377;50.698;7.164;2023-12-20T03:51:30;8.52;;;2.72;;
81912;SDS011;71377;50.698;7.164;2023-12-20T03:53:56;6.05;;;1.98;;
81912;SDS011;71377;50.698;7.164;2023-12-20T03:56:23;8.88;;;2.35;;
81912;SDS011;71377;50.698;7.164;2023-12-20T03:58:49;7.00;;;2.38;;
81912;SDS011;71377;50.698;7.164;2023-12-20T04:01:15;7.80;;;2.40;;
81912;SDS011;71377;50.698;7.164;2023-12-20T04:03:42;8.20;;;2.33;;
81912;SDS011;71377;50.698;7.164;2023-12-20T04:06:08;7.18;;;2.20;;
81912;SDS011;71377;50.698;7.164;2023-12-20T04:08:36;9.60;;;2.60;;
81912;SDS011;71377;50.698;7.164;2023-12-20T04:11:02;10.43;;;2.28;;
81912;SDS011;71377;50.698;7.164;2023-12-20T04:13:29;6.90;;;2.20;;
81912;SDS011;71377;50.698;7.164;2023-12-20T04:15:56;6.53;;;2.30;;
81912;SDS011;71377;50.698;7.164;2023-12-20T04:18:22;6.80;;;2.17;;
81912;SDS011;71377;50.698;7.164;2023-12-20T04:20:49;10.05;;;2.20;;
81912;SDS011;71377;50.698;7.164;2023-12-20T04:23:16;11.07;;;2.60;;
81912;SDS011;71377;50.698;7.164;2023-12-20T04:25:42;9.15;;;2.80;;
81912;SDS011;71377;50.698;7.164;2023-12-20T04:28:08;6.90;;;2.33;;
81912;SDS011;71377;50.698;7.164;2023-12-20T04:30:35;9.48;;;2.80;;
81912;SDS011;71377;50.698;7.164;2023-12-20T04:33:01;8.85;;;2.50;;
81912;SDS011;71377;50.698;7.164;2023-12-20T04:35:28;11.35;;;2.63;;
81912;SDS011;71377;50.698;7.164;2023-12-20T04:37:55;11.15;;;2.72;;
81912;SDS011;71377;50.698;7.164;2023-12-20T04:40:21;9.55;;;2.63;;
81912;SDS011;71377;50.698;7.164;2023-12-20T04:42:48;8.77;;;2.42;;
81912;SDS011;71377;50.698;7.164;2023-12-20T04:45:14;9.20;;;2.28;;
81912;SDS011;71377;50.698;7.164;2023-12-20T04:47:41;6.75;;;2.38;;
81912;SDS011;71377;50.698;7.164;2023-12-20T04:50:08;10.05;;;3.00;;
81912;SDS011;71377;50.698;7.164;2023-12-20T04:52:36;10.15;;;2.60;;
81912;SDS011;71377;50.698;7.164;2023-12-20T04:55:02;10.70;;;2.70;;
81912;SDS011;71377;50.698;7.164;2023-12-20T04:57:29;14.18;;;3.03;;
81912;SDS011;71377;50.698;7.164;2023-12-20T04:59:55;9.50;;;2.70;;
81912;SDS011;71377;50.698;7.164;2023-12-20T05:02:22;10.98;;;2.88;;
81912;SDS011;71377;50.698;7.164;2023-12-20T05:04:49;10.48;;;3.00;;
81912;SDS011;71377;50.698;7.164;2023-12-20T05:07:18;12.82;;;3.00;;
81912;SDS011;71377;50.698;7.164;2023-12-20T05:09:44;8.95;;;2.90;;
81912;SDS011;71377;50.698;7.164;2023-12-20T05:12:11;5.97;;;2.78;;
81912;SDS011;71377;50.698;7.164;2023-12-20T05:14:37;13.93;;;3.50;;
81912;SDS011;71377;50.698;7.164;2023-12-20T05:17:04;12.48;;;2.80;;
81912;SDS011;71377;50.698;7.164;2023-12-20T05:19:30;13.52;;;3.42;;
81912;SDS011;71377;50.698;7.164;2023-12-20T05:21:57;11.30;;;2.95;;
81912;SDS011;71377;50.698;7.164;2023-12-20T05:24:23;8.43;;;2.60;;
81912;SDS011;71377;50.698;7.164;2023-12-20T05:26:50;13.65;;;3.40;;
81912;SDS011;71377;50.698;7.164;2023-12-20T05:29:19;13.20;;;3.15;;
81912;SDS011;71377;50.698;7.164;2023-12-20T05:31:46;11.68;;;3.13;;
81912;SDS011;71377;50.698;7.164;2023-12-20T05:34:12;12.82;;;2.95;;
81912;SDS011;71377;50.698;7.164;2023-12-20T05:36:39;7.95;;;2.92;;
81912;SDS011;71377;50.698;7.164;2023-12-20T05:39:05;10.25;;;2.72;;
81912;SDS011;71377;50.698;7.164;2023-12-20T05:41:31;15.48;;;3.90;;
81912;SDS011;71377;50.698;7.164;2023-12-20T05:43:58;17.55;;;3.42;;
81912;SDS011;71377;50.698;7.164;2023-12-20T05:46:24;11.45;;;3.55;;
81912;SDS011;71377;50.698;7.164;2023-12-20T05:48:51;12.55;;;3.38;;
81912;SDS011;71377;50.698;7.164;2023-12-20T05:51:19;11.73;;;2.88;;
81912;SDS011;71377;50.698;7.164;2023-12-20T05:53:45;8.95;;;2.80;;
81912;SDS011;71377;50.698;7.164;2023-12-20T05:56:12;6.60;;;2.90;;
81912;SDS011;71377;50.698;7.164;2023-12-20T05:58:38;11.15;;;3.75;;
81912;SDS011;71377;50.698;7.164;2023-12-20T06:01:05;9.77;;;3.25;;
81912;SDS011;71377;50.698;7.164;2023-12-20T06:03:32;13.95;;;3.38;;
81912;SDS011;71377;50.698;7.164;2023-12-20T06:05:58;11.30;;;2.70;;
81912;SDS011;71377;50.698;7.164;2023-12-20T06:08:40;8.90;;;3.08;;
81912;SDS011;71377;50.698;7.164;2023-12-20T06:11:07;9.88;;;2.72;;
81912;SDS011;71377;50.698;7.164;2023-12-20T06:13:33;11.13;;;3.20;;
81912;SDS011;71377;50.698;7.164;2023-12-20T06:16:00;9.20;;;2.95;;
81912;SDS011;71377;50.698;7.164;2023-12-20T06:18:26;9.57;;;3.17;;
81912;SDS011;71377;50.698;7.164;2023-12-20T06:21:17;11.35;;;3.08;;
81912;SDS011;71377;50.698;7.164;2023-12-20T06:23:45;12.75;;;3.28;;
81912;SDS011;71377;50.698;7.164;2023-12-20T06:26:12;8.98;;;3.22;;
81912;SDS011;71377;50.698;7.164;2023-12-20T06:28:38;13.88;;;3.28;;
81912;SDS011;71377;50.698;7.164;2023-12-20T06:31:07;11.85;;;3.40;;
81912;SDS011;71377;50.698;7.164;2023-12-20T06:33:34;9.40;;;2.70;;
81912;SDS011;71377;50.698;7.164;2023-12-20T06:36:00;7.18;;;2.90;;
81912;SDS011;71377;50.698;7.164;2023-12-20T06:38:27;9.02;;;2.88;;
81912;SDS011;71377;50.698;7.164;2023-12-20T06:40:53;18.17;;;2.97;;
81912;SDS011;71377;50.698;7.164;2023-12-20T06:43:20;13.38;;;2.67;;
81912;SDS011;71377;50.698;7.164;2023-12-20T06:46:06;9.15;;;2.97;;
81912;SDS011;71377;50.698;7.164;2023-12-20T06:48:33;9.63;;;2.85;;
81912;SDS011;71377;50.698;7.164;2023-12-20T06:51:00;11.05;;;2.80;;
81912;SDS011;71377;50.698;7.164;2023-12-20T06:53:28;9.30;;;3.10;;
81912;SDS011;71377;50.698;7.164;2023-12-20T06:55:54;10.77;;;2.65;;
81912;SDS011;71377;50.698;7.164;2023-12-20T06:58:22;10.38;;;2.95;;
81912;SDS011;71377;50.698;7.164;2023-12-20T07:00:49;12.77;;;3.17;;
81912;SDS011;71377;50.698;7.164;2023-12-20T07:03:17;13.30;;;3.13;;
81912;SDS011;71377;50.698;7.164;2023-12-20T07:05:44;16.77;;;3.05;;
81912;SDS011;71377;50.698;7.164;2023-12-20T07:08:10;14.10;;;3.13;;
81912;SDS011;71377;50.698;7.164;2023-12-20T07:10:37;11.15;;;3.00;;
81912;SDS011;71377;50.698;7.164;2023-12-20T07:13:03;10.30;;;2.63;;
81912;SDS011;71377;50.698;7.164;2023-12-20T07:15:30;14.20;;;2.92;;
81912;SDS011;71377;50.698;7.164;2023-12-20T07:17:56;18.15;;;3.28;;
81912;SDS011;71377;50.698;7.164;2023-12-20T07:20:23;11.32;;;2.50;;
81912;SDS011;71377;50.698;7.164;2023-12-20T07:22:50;11.07;;;2.90;;
81912;SDS011;71377;50.698;7.164;2023-12-20T07:25:16;11.20;;;2.63;;
81912;SDS011;71377;50.698;7.164;2023-12-20T07:27:43;13.98;;;3.05;;
81912;SDS011;71377;50.698;7.164;2023-12-20T07:30:11;12.20;;;3.10;;
81912;SDS011;71377;50.698;7.164;2023-12-20T07:32:37;8.32;;;2.58;;
81912;SDS011;71377;50.698;7.164;2023-12-20T07:35:04;10.05;;;3.35;;
81912;SDS011;71377;50.698;7.164;2023-12-20T07:37:32;12.70;;;3.28;;
81912;SDS011;71377;50.698;7.164;2023-12-20T07:39:58;10.32;;;2.58;;
81912;SDS011;71377;50.698;7.164;2023-12-20T07:42:24;14.50;;;3.05;;
81912;SDS011;71377;50.698;7.164;2023-12-20T07:44:51;13.85;;;3.53;;
81912;SDS011;71377;50.698;7.164;2023-12-20T07:47:17;7.43;;;3.17;;
81912;SDS011;71377;50.698;7.164;2023-12-20T07:49:48;18.00;;;3.00;;
81912;SDS011;71377;50.698;7.164;2023-12-20T07:52:15;12.68;;;3.28;;
81912;SDS011;71377;50.698;7.164;2023-12-20T07:54:42;8.68;;;2.92;;
81912;SDS011;71377;50.698;7.164;2023-12-20T07:57:09;10.25;;;2.70;;
81912;SDS011;71377;50.698;7.164;2023-12-20T07:59:39;13.18;;;3.05;;
81912;SDS011;71377;50.698;7.164;2023-12-20T08:02:05;11.50;;;2.92;;
81912;SDS011;71377;50.698;7.164;2023-12-20T08:04:32;15.23;;;3.15;;
81912;SDS011;71377;50.698;7.164;2023-12-20T08:06:59;11.55;;;2.78;;
81912;SDS011;71377;50.698;7.164;2023-12-20T08:09:26;9.10;;;2.80;;
81912;SDS011;71377;50.698;7.164;2023-12-20T08:11:53;14.68;;;2.95;;
81912;SDS011;71377;50.698;7.164;2023-12-20T08:14:19;12.52;;;3.22;;
81912;SDS011;71377;50.698;7.164;2023-12-20T08:16:45;7.40;;;3.00;;
81912;SDS011;71377;50.698;7.164;2023-12-20T08:19:12;11.48;;;3.50;;
81912;SDS011;71377;50.698;7.164;2023-12-20T08:21:39;9.75;;;2.85;;
81912;SDS011;71377;50.698;7.164;2023-12-20T08:24:07;13.73;;;3.05;;
81912;SDS011;71377;50.698;7.164;2023-12-20T08:26:34;11.63;;;2.70;;
81912;SDS011;71377;50.698;7.164;2023-12-20T08:29:00;10.50;;;2.90;;
81912;SDS011;71377;50.698;7.164;2023-12-20T08:31:28;9.48;;;2.50;;
81912;SDS011;71377;50.698;7.164;2023-12-20T08:33:55;10.07;;;3.40;;
81912;SDS011;71377;50.698;7.164;2023-12-20T08:36:23;13.07;;;2.80;;
81912;SDS011;71377;50.698;7.164;2023-12-20T08:38:50;11.05;;;3.00;;
81912;SDS011;71377;50.698;7.164;2023-12-20T08:41:17;10.90;;;2.85;;
81912;SDS011;71377;50.698;7.164;2023-12-20T08:43:44;12.15;;;3.75;;
81912;SDS011;71377;50.698;7.164;2023-12-20T08:46:11;12.32;;;3.00;;
81912;SDS011;71377;50.698;7.164;2023-12-20T08:48:38;10.30;;;2.95;;
81912;SDS011;71377;50.698;7.164;2023-12-20T08:51:05;9.73;;;2.60;;
81912;SDS011;71377;50.698;7.164;2023-12-20T08:53:36;12.35;;;3.10;;
81912;SDS011;71377;50.698;7.164;2023-12-20T08:56:02;10.82;;;3.20;;
81912;SDS011;71377;50.698;7.164;2023-12-20T08:58:29;12.70;;;2.60;;
81912;SDS011;71377;50.698;7.164;2023-12-20T09:00:56;8.20;;;2.70;;
81912;SDS011;71377;50.698;7.164;2023-12-20T09:03:24;7.70;;;2.72;;
81912;SDS011;71377;50.698;7.164;2023-12-20T09:05:50;8.57;;;2.53;;
81912;SDS011;71377;50.698;7.164;2023-12-20T09:08:16;10.25;;;2.65;;
81912;SDS011;71377;50.698;7.164;2023-12-20T09:10:43;14.55;;;3.45;;
81912;SDS011;71377;50.698;7.164;2023-12-20T09:13:10;9.20;;;2.90;;
81912;SDS011;71377;50.698;7.164;2023-12-20T09:15:37;15.18;;;2.90;;
81912;SDS011;71377;50.698;7.164;2023-12-20T09:18:03;7.70;;;2.40;;
81912;SDS011;71377;50.698;7.164;2023-12-20T09:20:30;13.30;;;2.60;;
81912;SDS011;71377;50.698;7.164;2023-12-20T09:22:57;9.10;;;2.42;;
81912;SDS011;71377;50.698;7.164;2023-12-20T09:25:24;10.30;;;2.38;;
81912;SDS011;71377;50.698;7.164;2023-12-20T09:27:52;9.38;;;2.60;;
81912;SDS011;71377;50.698;7.164;2023-12-20T09:30:19;12.40;;;2.42;;
81912;SDS011;71377;50.698;7.164;2023-12-20T09:32:53;9.33;;;2.67;;
81912;SDS011;71377;50.698;7.164;2023-12-20T09:35:22;9.68;;;2.60;;
81912;SDS011;71377;50.698;7.164;2023-12-20T09:37:49;8.90;;;2.25;;
81912;SDS011;71377;50.698;7.164;2023-12-20T09:40:17;8.82;;;2.65;;
81912;SDS011;71377;50.698;7.164;2023-12-20T09:45:22;11.98;;;2.72;;
81912;SDS011;71377;50.698;7.164;2023-12-20T09:47:52;11.68;;;2.78;;
81912;SDS011;71377;50.698;7.164;2023-12-20T09:50:20;6.88;;;2.25;;
81912;SDS011;71377;50.698;7.164;2023-12-20T09:52:52;6.97;;;2.30;;
81912;SDS011;71377;50.698;7.164;2023-12-20T09:55:20;8.73;;;2.30;;
81912;SDS011;71377;50.698;7.164;2023-12-20T09:57:48;12.27;;;2.55;;
81912;SDS011;71377;50.698;7.164;2023-12-20T10:00:16;10.30;;;3.08;;
81912;SDS011;71377;50.698;7.164;2023-12-20T10:02:58;10.13;;;2.92;;
81912;SDS011;71377;50.698;7.164;2023-12-20T10:05:27;9.00;;;2.60;;
81912;SDS011;71377;50.698;7.164;2023-12-20T10:07:56;9.00;;;2.58;;
81912;SDS011;71377;50.698;7.164;2023-12-20T10:10:23;8.00;;;2.25;;
81912;SDS011;71377;50.698;7.164;2023-12-20T10:15:29;8.90;;;2.33;;
81912;SDS011;71377;50.698;7.164;2023-12-20T10:17:57;9.43;;;2.95;;
81912;SDS011;71377;50.698;7.164;2023-12-20T10:20:27;8.73;;;2.33;;
81912;SDS011;71377;50.698;7.164;2023-12-20T10:22:58;14.15;;;2.72;;
81912;SDS011;71377;50.698;7.164;2023-12-20T10:25:26;9.25;;;2.60;;
81912;SDS011;71377;50.698;7.164;2023-12-20T10:30:55;9.38;;;3.00;;
81912;SDS011;71377;50.698;7.164;2023-12-20T10:33:28;13.00;;;3.40;;
81912;SDS011;71377;50.698;7.164;2023-12-20T10:35:55;11.50;;;2.92;;
81912;SDS011;71377;50.698;7.164;2023-12-20T10:38:22;9.82;;;2.38;;
81912;SDS011;71377;50.698;7.164;2023-12-20T10:40:49;9.60;;;2.50;;
81912;SDS011;71377;50.698;7.164;2023-12-20T10:43:23;9.35;;;2.83;;
81912;SDS011;71377;50.698;7.164;2023-12-20T10:45:52;9.73;;;2.63;;
81912;SDS011;71377;50.698;7.164;2023-12-20T10:48:19;9.90;;;2.88;;
81912;SDS011;71377;50.698;7.164;2023-12-20T10:50:47;12.38;;;2.67;;
81912;SDS011;71377;50.698;7.164;2023-12-20T10:53:15;7.80;;;2.40;;
81912;SDS011;71377;50.698;7.164;2023-12-20T10:55:42;13.05;;;2.75;;
81912;SDS011;71377;50.698;7.164;2023-12-20T10:58:10;7.80;;;3.15;;
81912;SDS011;71377;50.698;7.164;2023-12-20T11:00:39;15.80;;;3.85;;
81912;SDS011;71377;50.698;7.164;2023-12-20T11:03:10;13.60;;;3.20;;
81912;SDS011;71377;50.698;7.164;2023-12-20T11:13:54;9.60;;;2.63;;
81912;SDS011;71377;50.698;7.164;2023-12-20T11:16:24;12.95;;;3.10;;
81912;SDS011;71377;50.698;7.164;2023-12-20T11:18:55;9.07;;;2.80;;
81912;SDS011;71377;50.698;7.164;2023-12-20T11:21:21;10.68;;;3.22;;
81912;SDS011;71377;50.698;7.164;2023-12-20T11:23:48;10.55;;;3.35;;
81912;SDS011;71377;50.698;7.164;2023-12-20T11:26:17;7.40;;;3.15;;
81912;SDS011;71377;50.698;7.164;2023-12-20T11:28:49;12.55;;;3.28;;
81912;SDS011;71377;50.698;7.164;2023-12-20T11:31:15;7.10;;;2.55;;
81912;SDS011;71377;50.698;7.164;2023-12-20T11:33:42;9.48;;;2.60;;
81912;SDS011;71377;50.698;7.164;2023-12-20T11:36:19;8.65;;;3.05;;
81912;SDS011;71377;50.698;7.164;2023-12-20T11:38:55;13.35;;;3.10;;
81912;SDS011;71377;50.698;7.164;2023-12-20T11:41:23;8.98;;;2.78;;
81912;SDS011;71377;50.698;7.164;2023-12-20T11:43:53;8.45;;;2.38;;
81912;SDS011;71377;50.698;7.164;2023-12-20T11:46:20;9.93;;;2.65;;
81912;SDS011;71377;50.698;7.164;2023-12-20T11:48:47;10.43;;;2.70;;
81912;SDS011;71377;50.698;7.164;2023-12-20T11:51:14;10.50;;;3.30;;
81912;SDS011;71377;50.698;7.164;2023-12-20T11:53:41;8.27;;;2.72;;
81912;SDS011;71377;50.698;7.164;2023-12-20T11:56:11;8.10;;;2.55;;
81912;SDS011;71377;50.698;7.164;2023-12-20T11:58:38;12.05;;;2.83;;
81912;SDS011;71377;50.698;7.164;2023-12-20T12:01:05;13.93;;;3.35;;
81912;SDS011;71377;50.698;7.164;2023-12-20T12:03:34;12.27;;;3.20;;
81912;SDS011;71377;50.698;7.164;2023-12-20T12:06:02;6.60;;;2.55;;
81912;SDS011;71377;50.698;7.164;2023-12-20T12:08:31;11.13;;;2.70;;
81912;SDS011;71377;50.698;7.164;2023-12-20T12:10:57;9.38;;;2.70;;
81912;SDS011;71377;50.698;7.164;2023-12-20T12:13:24;7.07;;;2.55;;
81912;SDS011;71377;50.698;7.164;2023-12-20T12:15:53;8.15;;;2.95;;
81912;SDS011;71377;50.698;7.164;2023-12-20T12:18:20;5.68;;;2.35;;
81912;SDS011;71377;50.698;7.164;2023-12-20T12:20:46;12.35;;;3.08;;
81912;SDS011;71377;50.698;7.164;2023-12-20T12:23:13;10.43;;;2.95;;
81912;SDS011;71377;50.698;7.164;2023-12-20T12:25:40;9.00;;;2.83;;
81912;SDS011;71377;50.698;7.164;2023-12-20T12:28:09;8.70;;;2.38;;
81912;SDS011;71377;50.698;7.164;2023-12-20T12:30:36;5.95;;;2.42;;
81912;SDS011;71377;50.698;7.164;2023-12-20T12:33:11;11.57;;;2.55;;
81912;SDS011;71377;50.698;7.164;2023-12-20T12:35:38;10.73;;;2.45;;
81912;SDS011;71377;50.698;7.164;2023-12-20T12:38:06;11.35;;;2.67;;
81912;SDS011;71377;50.698;7.164;2023-12-20T12:40:34;6.45;;;2.60;;
81912;SDS011;71377;50.698;7.164;2023-12-20T12:43:02;8.90;;;2.72;;
81912;SDS011;71377;50.698;7.164;2023-12-20T12:45:29;8.75;;;3.05;;
81912;SDS011;71377;50.698;7.164;2023-12-20T12:47:55;9.20;;;2.20;;
81912;SDS011;71377;50.698;7.164;2023-12-20T12:50:23;9.30;;;2.97;;
81912;SDS011;71377;50.698;7.164;2023-12-20T12:52:50;11.27;;;2.90;;
81912;SDS011;71377;50.698;7.164;2023-12-20T12:55:16;12.07;;;3.05;;
81912;SDS011;71377;50.698;7.164;2023-12-20T12:57:43;6.45;;;3.00;;
81912;SDS011;71377;50.698;7.164;2023-12-20T13:00:10;12.60;;;2.42;;
81912;SDS011;71377;50.698;7.164;2023-12-20T13:02:37;9.52;;;2.38;;
81912;SDS011;71377;50.698;7.164;2023-12-20T13:05:08;9.75;;;2.60;;
81912;SDS011;71377;50.698;7.164;2023-12-20T13:07:35;9.05;;;2.60;;
81912;SDS011;71377;50.698;7.164;2023-12-20T13:10:04;13.27;;;3.35;;
81912;SDS011;71377;50.698;7.164;2023-12-20T13:12:32;15.98;;;3.45;;
81912;SDS011;71377;50.698;7.164;2023-12-20T13:14:58;12.85;;;3.17;;
81912;SDS011;71377;50.698;7.164;2023-12-20T13:17:24;5.97;;;2.50;;
81912;SDS011;71377;50.698;7.164;2023-12-20T13:19:53;10.52;;;2.60;;
81912;SDS011;71377;50.698;7.164;2023-12-20T13:22:20;10.45;;;3.38;;
81912;SDS011;71377;50.698;7.164;2023-12-20T13:24:46;7.72;;;2.70;;
81912;SDS011;71377;50.698;7.164;2023-12-20T13:27:13;6.55;;;2.20;;
81912;SDS011;71377;50.698;7.164;2023-12-20T13:29:39;10.02;;;2.53;;
81912;SDS011;71377;50.698;7.164;2023-12-20T13:32:06;9.85;;;2.38;;
81912;SDS011;71377;50.698;7.164;2023-12-20T13:34:33;6.78;;;2.95;;
81912;SDS011;71377;50.698;7.164;2023-12-20T13:37:00;8.65;;;2.72;;
81912;SDS011;71377;50.698;7.164;2023-12-20T13:39:27;12.02;;;3.50;;
81912;SDS011;71377;50.698;7.164;2023-12-20T13:41:54;7.53;;;2.50;;
81912;SDS011;71377;50.698;7.164;2023-12-20T13:44:25;9.05;;;2.40;;
81912;SDS011;71377;50.698;7.164;2023-12-20T13:46:51;11.73;;;3.00;;
81912;SDS011;71377;50.698;7.164;2023-12-20T13:49:18;8.27;;;3.00;;
81912;SDS011;71377;50.698;7.164;2023-12-20T13:51:44;11.88;;;2.63;;
81912;SDS011;71377;50.698;7.164;2023-12-20T13:54:11;7.30;;;3.13;;
81912;SDS011;71377;50.698;7.164;2023-12-20T13:56:37;11.80;;;3.00;;
81912;SDS011;71377;50.698;7.164;2023-12-20T13:59:17;8.50;;;2.95;;
81912;SDS011;71377;50.698;7.164;2023-12-20T14:01:44;6.97;;;2.63;;
81912;SDS011;71377;50.698;7.164;2023-12-20T14:04:10;12.40;;;2.92;;
81912;SDS011;71377;50.698;7.164;2023-12-20T14:06:57;4.80;;;2.42;;
81912;SDS011;71377;50.698;7.164;2023-12-20T14:09:24;5.60;;;2.78;;
81912;SDS011;71377;50.698;7.164;2023-12-20T14:11:51;5.68;;;2.17;;
81912;SDS011;71377;50.698;7.164;2023-12-20T14:14:17;8.70;;;2.40;;
81912;SDS011;71377;50.698;7.164;2023-12-20T14:16:43;5.63;;;2.60;;
81912;SDS011;71377;50.698;7.164;2023-12-20T14:19:11;5.85;;;2.38;;
81912;SDS011;71377;50.698;7.164;2023-12-20T14:21:38;7.93;;;2.00;;
81912;SDS011;71377;50.698;7.164;2023-12-20T14:24:04;7.75;;;2.38;;
81912;SDS011;71377;50.698;7.164;2023-12-20T14:26:31;7.20;;;2.35;;
81912;SDS011;71377;50.698;7.164;2023-12-20T14:28:58;9.18;;;2.63;;
81912;SDS011;71377;50.698;7.164;2023-12-20T14:31:24;7.97;;;1.98;;
81912;SDS011;71377;50.698;7.164;2023-12-20T14:33:51;7.70;;;2.25;;
81912;SDS011;71377;50.698;7.164;2023-12-20T14:36:21;5.18;;;2.00;;
81912;SDS011;71377;50.698;7.164;2023-12-20T14:38:48;4.88;;;1.83;;
81912;SDS011;71377;50.698;7.164;2023-12-20T14:41:16;4.85;;;2.00;;
81912;SDS011;71377;50.698;7.164;2023-12-20T14:43:44;3.72;;;1.58;;
81912;SDS011;71377;50.698;7.164;2023-12-20T14:46:13;4.47;;;2.03;;
81912;SDS011;71377;50.698;7.164;2023-12-20T14:48:39;4.05;;;1.92;;
81912;SDS011;71377;50.698;7.164;2023-12-20T14:51:06;3.00;;;1.60;;
81912;SDS011;71377;50.698;7.164;2023-12-20T14:53:33;6.53;;;1.58;;
81912;SDS011;71377;50.698;7.164;2023-12-20T14:56:02;3.72;;;1.50;;
81912;SDS011;71377;50.698;7.164;2023-12-20T14:58:30;3.85;;;2.17;;
81912;SDS011;71377;50.698;7.164;2023-12-20T15:00:57;2.83;;;1.52;;